sensor_id;sensor_type;location;lat;lon;timestamp;temperature;humidity
8862;DHT22;4799;50.996;4.754;2023-03-02T00:00:46;-0.30;99.90
8862;DHT22;4799;50.996;4.754;2023-03-02T00:03:13;-0.30;99.90
8862;DHT22;4799;50.996;4.754;2023-03-02T00:05:43;-0.40;99.90
8862;DHT22;4799;50.996;4.754;2023-03-02T00:08:13;-0.40;99.90
8862;DHT22;4799;50.996;4.754;2023-03-02T00:10:41;-0.40;99.90
8862;DHT22;4799;50.996;4.754;2023-03-02T00:13:07;-0.50;99.90
8862;DHT22;4799;50.996;4.754;2023-03-02T00:15:32;-0.50;99.90
8862;DHT22;4799;50.996;4.754;2023-03-02T00:17:58;-0.60;99.90
8862;DHT22;4799;50.996;4.754;2023-03-02T00:20:24;-0.70;99.90
8862;DHT22;4799;50.996;4.754;2023-03-02T00:22:50;-0.70;99.90
8862;DHT22;4799;50.996;4.754;2023-03-02T00:25:16;-0.80;99.90
8862;DHT22;4799;50.996;4.754;2023-03-02T00:27:43;-0.80;99.90
8862;DHT22;4799;50.996;4.754;2023-03-02T00:30:10;-0.90;99.90
8862;DHT22;4799;50.996;4.754;2023-03-02T00:32:36;-1.00;99.90
8862;DHT22;4799;50.996;4.754;2023-03-02T00:35:02;-1.00;99.90
8862;DHT22;4799;50.996;4.754;2023-03-02T00:37:28;-1.00;99.90
8862;DHT22;4799;50.996;4.754;2023-03-02T00:39:54;-1.10;99.90
8862;DHT22;4799;50.996;4.754;2023-03-02T00:42:20;-1.10;99.90
8862;DHT22;4799;50.996;4.754;2023-03-02T00:44:46;-1.20;99.90
8862;DHT22;4799;50.996;4.754;2023-03-02T00:47:12;-1.20;99.90
8862;DHT22;4799;50.996;4.754;2023-03-02T00:49:38;-1.20;99.90
8862;DHT22;4799;50.996;4.754;2023-03-02T00:52:04;-1.20;99.90
8862;DHT22;4799;50.996;4.754;2023-03-02T00:54:30;-1.20;99.90
8862;DHT22;4799;50.996;4.754;2023-03-02T00:56:57;-1.20;99.90
8862;DHT22;4799;50.996;4.754;2023-03-02T00:59:22;-1.10;99.90
8862;DHT22;4799;50.996;4.754;2023-03-02T01:01:57;-1.10;99.90
8862;DHT22;4799;50.996;4.754;2023-03-02T01:06:54;-1.00;99.90
8862;DHT22;4799;50.996;4.754;2023-03-02T01:09:20;-1.00;99.90
8862;DHT22;4799;50.996;4.754;2023-03-02T01:11:46;-1.00;99.90
8862;DHT22;4799;50.996;4.754;2023-03-02T01:14:12;-1.00;99.90
8862;DHT22;4799;50.996;4.754;2023-03-02T01:16:37;-1.00;99.90
8862;DHT22;4799;50.996;4.754;2023-03-02T01:19:03;-1.10;99.90
8862;DHT22;4799;50.996;4.754;2023-03-02T01:21:29;-1.10;99.90
8862;DHT22;4799;50.996;4.754;2023-03-02T01:23:54;-1.20;99.90
8862;DHT22;4799;50.996;4.754;2023-03-02T01:26:20;-1.20;99.90
8862;DHT22;4799;50.996;4.754;2023-03-02T01:28:46;-1.30;99.90
8862;DHT22;4799;50.996;4.754;2023-03-02T01:31:11;-1.30;99.90
8862;DHT22;4799;50.996;4.754;2023-03-02T01:33:37;-1.40;99.90
8862;DHT22;4799;50.996;4.754;2023-03-02T01:36:03;-1.40;99.90
8862;DHT22;4799;50.996;4.754;2023-03-02T01:38:29;-1.40;99.90
8862;DHT22;4799;50.996;4.754;2023-03-02T01:40:55;-1.40;99.90
8862;DHT22;4799;50.996;4.754;2023-03-02T01:43:21;-1.40;99.90
8862;DHT22;4799;50.996;4.754;2023-03-02T01:45:56;-1.50;99.90
8862;DHT22;4799;50.996;4.754;2023-03-02T01:48:29;-1.40;99.90
8862;DHT22;4799;50.996;4.754;2023-03-02T01:50:56;-1.40;99.90
8862;DHT22;4799;50.996;4.754;2023-03-02T01:53:25;-1.50;99.90
8862;DHT22;4799;50.996;4.754;2023-03-02T01:55:53;-1.50;99.90
8862;DHT22;4799;50.996;4.754;2023-03-02T01:58:19;-1.50;99.90
8862;DHT22;4799;50.996;4.754;2023-03-02T02:00:46;-1.50;99.90
8862;DHT22;4799;50.996;4.754;2023-03-02T02:03:21;-1.50;99.90
8862;DHT22;4799;50.996;4.754;2023-03-02T02:05:57;-1.50;99.90
8862;DHT22;4799;50.996;4.754;2023-03-02T02:08:25;-1.50;99.90
8862;DHT22;4799;50.996;4.754;2023-03-02T02:10:52;-1.50;99.90
8862;DHT22;4799;50.996;4.754;2023-03-02T02:13:17;-1.50;99.90
8862;DHT22;4799;50.996;4.754;2023-03-02T02:15:43;-1.50;99.90
8862;DHT22;4799;50.996;4.754;2023-03-02T02:18:09;-1.60;99.90
8862;DHT22;4799;50.996;4.754;2023-03-02T02:20:40;-1.60;99.90
8862;DHT22;4799;50.996;4.754;2023-03-02T02:23:25;-1.50;99.90
8862;DHT22;4799;50.996;4.754;2023-03-02T02:28:31;-1.50;99.90
8862;DHT22;4799;50.996;4.754;2023-03-02T02:31:33;-1.40;99.90
8862;DHT22;4799;50.996;4.754;2023-03-02T02:34:14;-1.40;99.90
8862;DHT22;4799;50.996;4.754;2023-03-02T02:36:46;-1.30;99.90
8862;DHT22;4799;50.996;4.754;2023-03-02T02:39:20;-1.30;99.90
8862;DHT22;4799;50.996;4.754;2023-03-02T02:41:48;-1.30;99.90
8862;DHT22;4799;50.996;4.754;2023-03-02T02:44:16;-1.20;99.90
8862;DHT22;4799;50.996;4.754;2023-03-02T02:46:43;-1.20;99.90
8862;DHT22;4799;50.996;4.754;2023-03-02T02:49:33;-1.30;99.90
8862;DHT22;4799;50.996;4.754;2023-03-02T02:52:00;-1.20;99.90
8862;DHT22;4799;50.996;4.754;2023-03-02T02:54:27;-1.30;99.90
8862;DHT22;4799;50.996;4.754;2023-03-02T02:56:55;-1.20;99.90
8862;DHT22;4799;50.996;4.754;2023-03-02T02:59:28;-1.20;99.90
8862;DHT22;4799;50.996;4.754;2023-03-02T03:01:55;-1.20;99.90
8862;DHT22;4799;50.996;4.754;2023-03-02T03:04:24;-1.30;99.90
8862;DHT22;4799;50.996;4.754;2023-03-02T03:06:58;-1.30;99.90
8862;DHT22;4799;50.996;4.754;2023-03-02T03:09:25;-1.30;99.90
8862;DHT22;4799;50.996;4.754;2023-03-02T03:11:56;-1.40;99.90
8862;DHT22;4799;50.996;4.754;2023-03-02T03:14:33;-1.40;99.90
8862;DHT22;4799;50.996;4.754;2023-03-02T03:16:59;-1.40;99.90
8862;DHT22;4799;50.996;4.754;2023-03-02T03:19:30;-1.50;99.90
8862;DHT22;4799;50.996;4.754;2023-03-02T03:21:58;-1.50;99.90
8862;DHT22;4799;50.996;4.754;2023-03-02T03:24:26;-1.40;99.90
8862;DHT22;4799;50.996;4.754;2023-03-02T03:26:53;-1.40;99.90
8862;DHT22;4799;50.996;4.754;2023-03-02T03:29:20;-1.40;99.90
8862;DHT22;4799;50.996;4.754;2023-03-02T03:31:52;-1.40;99.90
8862;DHT22;4799;50.996;4.754;2023-03-02T03:34:19;-1.40;99.90
8862;DHT22;4799;50.996;4.754;2023-03-02T03:36:45;-1.40;99.90
8862;DHT22;4799;50.996;4.754;2023-03-02T03:39:13;-1.40;99.90
8862;DHT22;4799;50.996;4.754;2023-03-02T03:41:39;-1.40;99.90
8862;DHT22;4799;50.996;4.754;2023-03-02T03:44:05;-1.40;99.90
8862;DHT22;4799;50.996;4.754;2023-03-02T03:46:32;-1.40;99.90
8862;DHT22;4799;50.996;4.754;2023-03-02T03:48:58;-1.50;99.90
8862;DHT22;4799;50.996;4.754;2023-03-02T03:51:24;-1.50;99.90
8862;DHT22;4799;50.996;4.754;2023-03-02T03:53:51;-1.50;99.90
8862;DHT22;4799;50.996;4.754;2023-03-02T03:56:31;-1.60;99.90
8862;DHT22;4799;50.996;4.754;2023-03-02T03:58:58;-1.60;99.90
8862;DHT22;4799;50.996;4.754;2023-03-02T04:01:42;-1.60;99.90
8862;DHT22;4799;50.996;4.754;2023-03-02T04:04:15;-1.60;99.90
8862;DHT22;4799;50.996;4.754;2023-03-02T04:06:41;-1.70;99.90
8862;DHT22;4799;50.996;4.754;2023-03-02T04:09:07;-1.60;99.90
8862;DHT22;4799;50.996;4.754;2023-03-02T04:11:39;-1.60;99.90
8862;DHT22;4799;50.996;4.754;2023-03-02T04:14:06;-1.60;99.90
8862;DHT22;4799;50.996;4.754;2023-03-02T04:16:32;-1.60;99.90
8862;DHT22;4799;50.996;4.754;2023-03-02T04:18:59;-1.60;99.90
8862;DHT22;4799;50.996;4.754;2023-03-02T04:21:25;-1.60;99.90
8862;DHT22;4799;50.996;4.754;2023-03-02T04:23:51;-1.60;99.90
8862;DHT22;4799;50.996;4.754;2023-03-02T04:26:17;-1.70;99.90
8862;DHT22;4799;50.996;4.754;2023-03-02T04:28:43;-1.60;99.90
8862;DHT22;4799;50.996;4.754;2023-03-02T04:31:09;-1.70;99.90
8862;DHT22;4799;50.996;4.754;2023-03-02T04:33:34;-1.70;99.90
8862;DHT22;4799;50.996;4.754;2023-03-02T04:36:00;-1.70;99.90
8862;DHT22;4799;50.996;4.754;2023-03-02T04:38:26;-1.70;99.90
8862;DHT22;4799;50.996;4.754;2023-03-02T04:40:55;-1.80;99.90
8862;DHT22;4799;50.996;4.754;2023-03-02T04:43:22;-1.80;99.90
8862;DHT22;4799;50.996;4.754;2023-03-02T04:45:48;-1.80;99.90
8862;DHT22;4799;50.996;4.754;2023-03-02T04:48:14;-1.80;99.90
8862;DHT22;4799;50.996;4.754;2023-03-02T04:50:40;-1.90;99.90
8862;DHT22;4799;50.996;4.754;2023-03-02T04:53:06;-1.90;99.90
8862;DHT22;4799;50.996;4.754;2023-03-02T04:55:32;-1.90;99.90
8862;DHT22;4799;50.996;4.754;2023-03-02T04:57:57;-1.90;99.90
8862;DHT22;4799;50.996;4.754;2023-03-02T05:00:24;-1.90;99.90
8862;DHT22;4799;50.996;4.754;2023-03-02T05:02:50;-1.90;99.90
8862;DHT22;4799;50.996;4.754;2023-03-02T05:05:18;-1.90;99.90
8862;DHT22;4799;50.996;4.754;2023-03-02T05:07:44;-1.90;99.90
8862;DHT22;4799;50.996;4.754;2023-03-02T05:10:12;-1.90;99.90
8862;DHT22;4799;50.996;4.754;2023-03-02T05:12:37;-2.00;99.90
8862;DHT22;4799;50.996;4.754;2023-03-02T05:15:20;-2.00;99.90
8862;DHT22;4799;50.996;4.754;2023-03-02T05:17:46;-2.00;99.90
8862;DHT22;4799;50.996;4.754;2023-03-02T05:20:12;-2.00;99.90
8862;DHT22;4799;50.996;4.754;2023-03-02T05:22:38;-2.10;99.90
8862;DHT22;4799;50.996;4.754;2023-03-02T05:25:04;-2.10;99.90
8862;DHT22;4799;50.996;4.754;2023-03-02T05:27:30;-2.10;99.90
8862;DHT22;4799;50.996;4.754;2023-03-02T05:29:56;-2.20;99.90
8862;DHT22;4799;50.996;4.754;2023-03-02T05:32:22;-2.20;99.90
8862;DHT22;4799;50.996;4.754;2023-03-02T05:34:48;-2.20;99.90
8862;DHT22;4799;50.996;4.754;2023-03-02T05:37:13;-2.20;99.90
8862;DHT22;4799;50.996;4.754;2023-03-02T05:39:39;-2.20;99.90
8862;DHT22;4799;50.996;4.754;2023-03-02T05:42:05;-2.20;99.90
8862;DHT22;4799;50.996;4.754;2023-03-02T05:44:31;-2.20;99.90
8862;DHT22;4799;50.996;4.754;2023-03-02T05:46:56;-2.20;99.90
8862;DHT22;4799;50.996;4.754;2023-03-02T05:49:22;-2.20;99.90
8862;DHT22;4799;50.996;4.754;2023-03-02T05:51:48;-2.20;99.90
8862;DHT22;4799;50.996;4.754;2023-03-02T05:54:14;-2.30;99.90
8862;DHT22;4799;50.996;4.754;2023-03-02T05:56:40;-2.30;99.90
8862;DHT22;4799;50.996;4.754;2023-03-02T05:59:06;-2.30;99.90
8862;DHT22;4799;50.996;4.754;2023-03-02T06:01:32;-2.30;99.90
8862;DHT22;4799;50.996;4.754;2023-03-02T06:03:59;-2.30;99.90
8862;DHT22;4799;50.996;4.754;2023-03-02T06:06:25;-2.30;99.90
8862;DHT22;4799;50.996;4.754;2023-03-02T06:08:51;-2.30;99.90
8862;DHT22;4799;50.996;4.754;2023-03-02T06:11:16;-2.30;99.90
8862;DHT22;4799;50.996;4.754;2023-03-02T06:13:42;-2.20;99.90
8862;DHT22;4799;50.996;4.754;2023-03-02T06:16:08;-2.30;99.90
8862;DHT22;4799;50.996;4.754;2023-03-02T06:18:34;-2.20;99.90
8862;DHT22;4799;50.996;4.754;2023-03-02T06:21:01;-2.30;99.90
8862;DHT22;4799;50.996;4.754;2023-03-02T06:23:27;-2.30;99.90
8862;DHT22;4799;50.996;4.754;2023-03-02T06:25:53;-2.20;99.90
8862;DHT22;4799;50.996;4.754;2023-03-02T06:28:18;-2.20;99.90
8862;DHT22;4799;50.996;4.754;2023-03-02T06:30:45;-2.20;99.90
8862;DHT22;4799;50.996;4.754;2023-03-02T06:33:17;-2.20;99.90
8862;DHT22;4799;50.996;4.754;2023-03-02T06:35:44;-2.20;99.90
8862;DHT22;4799;50.996;4.754;2023-03-02T06:38:10;-2.10;99.90
8862;DHT22;4799;50.996;4.754;2023-03-02T06:40:36;-2.10;99.90
8862;DHT22;4799;50.996;4.754;2023-03-02T06:43:01;-2.10;99.90
8862;DHT22;4799;50.996;4.754;2023-03-02T06:45:27;-2.10;99.90
8862;DHT22;4799;50.996;4.754;2023-03-02T06:47:58;-2.10;99.90
8862;DHT22;4799;50.996;4.754;2023-03-02T06:50:23;-2.10;99.90
8862;DHT22;4799;50.996;4.754;2023-03-02T06:52:49;-2.00;99.90
8862;DHT22;4799;50.996;4.754;2023-03-02T06:55:15;-2.00;99.90
8862;DHT22;4799;50.996;4.754;2023-03-02T06:57:40;-2.00;99.90
8862;DHT22;4799;50.996;4.754;2023-03-02T07:00:09;-1.90;99.90
8862;DHT22;4799;50.996;4.754;2023-03-02T07:02:39;-1.90;99.90
8862;DHT22;4799;50.996;4.754;2023-03-02T07:05:06;-1.90;99.90
8862;DHT22;4799;50.996;4.754;2023-03-02T07:07:31;-1.90;99.90
8862;DHT22;4799;50.996;4.754;2023-03-02T07:09:57;-1.80;99.90
8862;DHT22;4799;50.996;4.754;2023-03-02T07:12:23;-1.80;99.90
8862;DHT22;4799;50.996;4.754;2023-03-02T07:14:49;-1.70;99.90
8862;DHT22;4799;50.996;4.754;2023-03-02T07:17:14;-1.70;99.90
8862;DHT22;4799;50.996;4.754;2023-03-02T07:19:40;-1.60;99.90
8862;DHT22;4799;50.996;4.754;2023-03-02T07:22:06;-1.60;99.90
8862;DHT22;4799;50.996;4.754;2023-03-02T07:24:32;-1.50;99.90
8862;DHT22;4799;50.996;4.754;2023-03-02T07:26:58;-1.40;99.90
8862;DHT22;4799;50.996;4.754;2023-03-02T07:29:23;-1.40;99.90
8862;DHT22;4799;50.996;4.754;2023-03-02T07:31:49;-1.30;99.90
8862;DHT22;4799;50.996;4.754;2023-03-02T07:34:22;-1.30;99.90
8862;DHT22;4799;50.996;4.754;2023-03-02T07:36:49;-1.20;99.90
8862;DHT22;4799;50.996;4.754;2023-03-02T07:39:14;-1.10;99.90
8862;DHT22;4799;50.996;4.754;2023-03-02T07:41:40;-1.00;99.90
8862;DHT22;4799;50.996;4.754;2023-03-02T07:44:06;-0.90;99.90
8862;DHT22;4799;50.996;4.754;2023-03-02T07:46:31;-0.80;99.90
8862;DHT22;4799;50.996;4.754;2023-03-02T07:48:57;-0.80;99.90
8862;DHT22;4799;50.996;4.754;2023-03-02T07:51:26;-0.70;99.90
8862;DHT22;4799;50.996;4.754;2023-03-02T07:53:51;-0.70;99.90
8862;DHT22;4799;50.996;4.754;2023-03-02T07:56:17;-0.60;99.90
8862;DHT22;4799;50.996;4.754;2023-03-02T07:58:45;-0.50;99.90
8862;DHT22;4799;50.996;4.754;2023-03-02T08:01:11;-0.40;99.90
8862;DHT22;4799;50.996;4.754;2023-03-02T08:03:36;-0.30;99.90
8862;DHT22;4799;50.996;4.754;2023-03-02T08:06:10;-0.30;99.90
8862;DHT22;4799;50.996;4.754;2023-03-02T08:08:37;-0.20;99.90
8862;DHT22;4799;50.996;4.754;2023-03-02T08:11:13;-0.10;99.90
8862;DHT22;4799;50.996;4.754;2023-03-02T08:13:40;-0.10;99.90
8862;DHT22;4799;50.996;4.754;2023-03-02T08:16:07;0.00;99.90
8862;DHT22;4799;50.996;4.754;2023-03-02T08:18:34;0.10;99.90
8862;DHT22;4799;50.996;4.754;2023-03-02T08:21:00;0.10;99.90
8862;DHT22;4799;50.996;4.754;2023-03-02T08:23:26;0.20;99.90
8862;DHT22;4799;50.996;4.754;2023-03-02T08:25:53;0.30;99.90
8862;DHT22;4799;50.996;4.754;2023-03-02T08:28:21;0.40;99.90
8862;DHT22;4799;50.996;4.754;2023-03-02T08:30:57;0.40;99.90
8862;DHT22;4799;50.996;4.754;2023-03-02T08:33:23;0.50;99.90
8862;DHT22;4799;50.996;4.754;2023-03-02T08:36:02;0.60;99.90
8862;DHT22;4799;50.996;4.754;2023-03-02T08:38:29;0.70;99.90
8862;DHT22;4799;50.996;4.754;2023-03-02T08:40:55;0.70;99.90
8862;DHT22;4799;50.996;4.754;2023-03-02T08:43:23;0.80;99.90
8862;DHT22;4799;50.996;4.754;2023-03-02T08:45:54;0.90;99.90
8862;DHT22;4799;50.996;4.754;2023-03-02T08:48:21;0.90;99.90
8862;DHT22;4799;50.996;4.754;2023-03-02T08:51:04;1.00;99.90
8862;DHT22;4799;50.996;4.754;2023-03-02T08:53:33;1.10;99.90
8862;DHT22;4799;50.996;4.754;2023-03-02T08:56:00;1.20;99.90
8862;DHT22;4799;50.996;4.754;2023-03-02T08:58:26;1.30;99.90
8862;DHT22;4799;50.996;4.754;2023-03-02T09:00:52;1.30;99.90
8862;DHT22;4799;50.996;4.754;2023-03-02T09:03:18;1.40;99.90
8862;DHT22;4799;50.996;4.754;2023-03-02T09:05:44;1.50;99.90
8862;DHT22;4799;50.996;4.754;2023-03-02T09:08:10;1.50;99.90
8862;DHT22;4799;50.996;4.754;2023-03-02T09:10:36;1.60;99.90
8862;DHT22;4799;50.996;4.754;2023-03-02T09:13:03;1.70;99.90
8862;DHT22;4799;50.996;4.754;2023-03-02T09:15:29;1.80;99.90
8862;DHT22;4799;50.996;4.754;2023-03-02T09:17:54;1.80;99.90
8862;DHT22;4799;50.996;4.754;2023-03-02T09:20:20;1.90;99.90
8862;DHT22;4799;50.996;4.754;2023-03-02T09:22:46;2.00;99.90
8862;DHT22;4799;50.996;4.754;2023-03-02T09:25:16;2.00;99.90
8862;DHT22;4799;50.996;4.754;2023-03-02T09:27:43;2.10;99.90
8862;DHT22;4799;50.996;4.754;2023-03-02T09:30:10;2.20;99.90
8862;DHT22;4799;50.996;4.754;2023-03-02T09:32:35;2.20;99.90
8862;DHT22;4799;50.996;4.754;2023-03-02T09:35:01;2.30;99.90
8862;DHT22;4799;50.996;4.754;2023-03-02T09:37:27;2.40;99.90
8862;DHT22;4799;50.996;4.754;2023-03-02T09:39:53;2.40;99.90
8862;DHT22;4799;50.996;4.754;2023-03-02T09:55:35;2.90;99.90
8862;DHT22;4799;50.996;4.754;2023-03-02T09:58:05;2.90;99.90
8862;DHT22;4799;50.996;4.754;2023-03-02T10:00:35;3.10;99.90
8862;DHT22;4799;50.996;4.754;2023-03-02T10:03:08;3.10;99.90
8862;DHT22;4799;50.996;4.754;2023-03-02T10:05:41;3.10;99.90
8862;DHT22;4799;50.996;4.754;2023-03-02T10:08:17;3.20;99.90
8862;DHT22;4799;50.996;4.754;2023-03-02T10:13:29;3.30;99.90
8862;DHT22;4799;50.996;4.754;2023-03-02T10:18:37;3.40;99.90
8862;DHT22;4799;50.996;4.754;2023-03-02T10:23:43;3.60;99.90
8862;DHT22;4799;50.996;4.754;2023-03-02T10:29:15;3.70;99.90
8862;DHT22;4799;50.996;4.754;2023-03-02T10:31:43;3.80;99.90
8862;DHT22;4799;50.996;4.754;2023-03-02T10:34:10;3.90;99.90
8862;DHT22;4799;50.996;4.754;2023-03-02T10:36:39;4.00;99.90
8862;DHT22;4799;50.996;4.754;2023-03-02T10:39:15;4.00;99.90
8862;DHT22;4799;50.996;4.754;2023-03-02T10:41:58;4.10;99.90
8862;DHT22;4799;50.996;4.754;2023-03-02T10:44:35;4.10;99.90
8862;DHT22;4799;50.996;4.754;2023-03-02T10:47:03;4.20;99.90
8862;DHT22;4799;50.996;4.754;2023-03-02T10:49:32;4.20;99.90
8862;DHT22;4799;50.996;4.754;2023-03-02T10:54:33;4.40;99.90
8862;DHT22;4799;50.996;4.754;2023-03-02T10:57:02;4.50;99.90
8862;DHT22;4799;50.996;4.754;2023-03-02T10:59:40;4.50;99.90
8862;DHT22;4799;50.996;4.754;2023-03-02T11:02:20;4.60;99.90
8862;DHT22;4799;50.996;4.754;2023-03-02T11:04:53;4.70;99.90
8862;DHT22;4799;50.996;4.754;2023-03-02T11:07:21;4.70;99.90
8862;DHT22;4799;50.996;4.754;2023-03-02T11:10:17;4.80;99.90
8862;DHT22;4799;50.996;4.754;2023-03-02T11:12:48;4.80;99.90
8862;DHT22;4799;50.996;4.754;2023-03-02T11:21:04;5.00;99.20
8862;DHT22;4799;50.996;4.754;2023-03-02T11:26:12;5.20;98.30
8862;DHT22;4799;50.996;4.754;2023-03-02T11:28:43;5.20;97.90
8862;DHT22;4799;50.996;4.754;2023-03-02T11:31:20;5.30;98.00
8862;DHT22;4799;50.996;4.754;2023-03-02T11:37:16;5.40;98.00
8862;DHT22;4799;50.996;4.754;2023-03-02T11:39:59;5.50;98.00
8862;DHT22;4799;50.996;4.754;2023-03-02T11:42:33;5.60;97.50
8862;DHT22;4799;50.996;4.754;2023-03-02T11:45:23;5.70;97.10
8862;DHT22;4799;50.996;4.754;2023-03-02T11:48:00;5.70;97.00
8862;DHT22;4799;50.996;4.754;2023-03-02T11:50:27;5.80;96.80
8862;DHT22;4799;50.996;4.754;2023-03-02T11:52:57;5.80;96.00
8862;DHT22;4799;50.996;4.754;2023-03-02T11:55:26;5.90;95.40
8862;DHT22;4799;50.996;4.754;2023-03-02T11:58:01;6.00;95.40
8862;DHT22;4799;50.996;4.754;2023-03-02T12:00:32;6.00;95.40
8862;DHT22;4799;50.996;4.754;2023-03-02T12:03:23;6.00;95.40
8862;DHT22;4799;50.996;4.754;2023-03-02T12:08:54;6.30;93.80
8862;DHT22;4799;50.996;4.754;2023-03-02T12:11:39;6.30;93.60
8862;DHT22;4799;50.996;4.754;2023-03-02T12:14:29;6.40;93.70
8862;DHT22;4799;50.996;4.754;2023-03-02T12:22:33;6.60;93.00
8862;DHT22;4799;50.996;4.754;2023-03-02T12:25:25;6.60;92.40
8862;DHT22;4799;50.996;4.754;2023-03-02T12:27:53;6.70;92.20
8862;DHT22;4799;50.996;4.754;2023-03-02T12:30:26;6.70;91.60
8862;DHT22;4799;50.996;4.754;2023-03-02T12:35:37;6.80;90.50
8862;DHT22;4799;50.996;4.754;2023-03-02T12:38:31;6.80;90.10
8862;DHT22;4799;50.996;4.754;2023-03-02T12:46:46;7.00;90.10
8862;DHT22;4799;50.996;4.754;2023-03-02T12:51:57;7.10;89.70
8862;DHT22;4799;50.996;4.754;2023-03-02T12:54:33;7.20;88.40
8862;DHT22;4799;50.996;4.754;2023-03-02T12:57:17;7.30;87.50
8862;DHT22;4799;50.996;4.754;2023-03-02T12:59:51;7.30;87.00
8862;DHT22;4799;50.996;4.754;2023-03-02T13:02:22;7.30;85.80
8862;DHT22;4799;50.996;4.754;2023-03-02T13:04:56;7.40;86.70
8862;DHT22;4799;50.996;4.754;2023-03-02T13:07:35;7.50;87.10
8862;DHT22;4799;50.996;4.754;2023-03-02T13:10:20;7.50;87.00
8862;DHT22;4799;50.996;4.754;2023-03-02T13:12:46;7.60;86.40
8862;DHT22;4799;50.996;4.754;2023-03-02T13:15:14;7.60;85.90
8862;DHT22;4799;50.996;4.754;2023-03-02T13:17:42;7.60;86.20
8862;DHT22;4799;50.996;4.754;2023-03-02T13:20:11;7.70;85.60
8862;DHT22;4799;50.996;4.754;2023-03-02T13:22:37;7.70;85.50
8862;DHT22;4799;50.996;4.754;2023-03-02T13:25:05;7.80;85.60
8862;DHT22;4799;50.996;4.754;2023-03-02T13:27:33;7.80;85.30
8862;DHT22;4799;50.996;4.754;2023-03-02T13:30:22;7.90;85.20
8862;DHT22;4799;50.996;4.754;2023-03-02T13:32:48;7.90;86.40
8862;DHT22;4799;50.996;4.754;2023-03-02T13:35:22;8.00;86.60
8862;DHT22;4799;50.996;4.754;2023-03-02T13:38:12;8.00;85.80
8862;DHT22;4799;50.996;4.754;2023-03-02T13:40:42;8.10;85.00
8862;DHT22;4799;50.996;4.754;2023-03-02T13:43:21;8.10;85.10
8862;DHT22;4799;50.996;4.754;2023-03-02T13:45:55;8.10;84.00
8862;DHT22;4799;50.996;4.754;2023-03-02T13:48:21;8.20;84.30
8862;DHT22;4799;50.996;4.754;2023-03-02T13:51:02;8.20;83.70
8862;DHT22;4799;50.996;4.754;2023-03-02T13:53:30;8.20;81.20
8862;DHT22;4799;50.996;4.754;2023-03-02T13:55:59;8.30;81.10
8862;DHT22;4799;50.996;4.754;2023-03-02T13:58:25;8.30;81.30
8862;DHT22;4799;50.996;4.754;2023-03-02T14:00:54;8.30;81.20
8862;DHT22;4799;50.996;4.754;2023-03-02T14:03:28;8.30;81.40
8862;DHT22;4799;50.996;4.754;2023-03-02T14:05:55;8.40;81.30
8862;DHT22;4799;50.996;4.754;2023-03-02T14:08:21;8.40;82.40
8862;DHT22;4799;50.996;4.754;2023-03-02T14:10:49;8.40;81.90
8862;DHT22;4799;50.996;4.754;2023-03-02T14:13:21;8.40;80.60
8862;DHT22;4799;50.996;4.754;2023-03-02T14:15:50;8.40;80.60
8862;DHT22;4799;50.996;4.754;2023-03-02T14:18:26;8.50;81.10
8862;DHT22;4799;50.996;4.754;2023-03-02T14:20:54;8.50;81.40
8862;DHT22;4799;50.996;4.754;2023-03-02T14:23:21;8.50;80.70
8862;DHT22;4799;50.996;4.754;2023-03-02T14:25:47;8.60;80.80
8862;DHT22;4799;50.996;4.754;2023-03-02T14:28:20;8.50;79.60
8862;DHT22;4799;50.996;4.754;2023-03-02T14:30:47;8.50;78.90
8862;DHT22;4799;50.996;4.754;2023-03-02T14:33:18;8.60;79.00
8862;DHT22;4799;50.996;4.754;2023-03-02T14:35:44;8.60;78.60
8862;DHT22;4799;50.996;4.754;2023-03-02T14:38:11;8.60;78.50
8862;DHT22;4799;50.996;4.754;2023-03-02T14:40:37;8.70;79.00
8862;DHT22;4799;50.996;4.754;2023-03-02T14:43:03;8.70;79.40
8862;DHT22;4799;50.996;4.754;2023-03-02T14:45:29;8.70;78.90
8862;DHT22;4799;50.996;4.754;2023-03-02T14:47:54;8.70;80.40
8862;DHT22;4799;50.996;4.754;2023-03-02T14:50:20;8.70;79.90
8862;DHT22;4799;50.996;4.754;2023-03-02T14:52:50;8.70;80.90
8862;DHT22;4799;50.996;4.754;2023-03-02T14:55:25;8.70;80.40
8862;DHT22;4799;50.996;4.754;2023-03-02T14:57:57;8.70;80.20
8862;DHT22;4799;50.996;4.754;2023-03-02T15:00:24;8.70;80.10
8862;DHT22;4799;50.996;4.754;2023-03-02T15:02:50;8.80;80.20
8862;DHT22;4799;50.996;4.754;2023-03-02T15:05:16;8.70;78.90
8862;DHT22;4799;50.996;4.754;2023-03-02T15:07:43;8.70;78.10
8862;DHT22;4799;50.996;4.754;2023-03-02T15:10:15;8.80;77.90
8862;DHT22;4799;50.996;4.754;2023-03-02T15:12:41;8.80;79.00
8862;DHT22;4799;50.996;4.754;2023-03-02T15:15:08;8.70;80.60
8862;DHT22;4799;50.996;4.754;2023-03-02T15:17:34;8.70;81.60
8862;DHT22;4799;50.996;4.754;2023-03-02T15:20:00;8.70;82.00
8862;DHT22;4799;50.996;4.754;2023-03-02T15:22:25;8.70;81.70
8862;DHT22;4799;50.996;4.754;2023-03-02T15:24:51;8.70;82.10
8862;DHT22;4799;50.996;4.754;2023-03-02T15:27:17;8.80;83.40
8862;DHT22;4799;50.996;4.754;2023-03-02T15:29:44;8.70;83.20
8862;DHT22;4799;50.996;4.754;2023-03-02T15:32:10;8.70;81.90
8862;DHT22;4799;50.996;4.754;2023-03-02T15:34:36;8.70;82.20
8862;DHT22;4799;50.996;4.754;2023-03-02T15:37:02;8.70;81.90
8862;DHT22;4799;50.996;4.754;2023-03-02T15:39:28;8.70;81.20
8862;DHT22;4799;50.996;4.754;2023-03-02T15:41:53;8.70;81.30
8862;DHT22;4799;50.996;4.754;2023-03-02T15:44:21;8.70;81.90
8862;DHT22;4799;50.996;4.754;2023-03-02T15:46:49;8.70;81.30
8862;DHT22;4799;50.996;4.754;2023-03-02T15:49:16;8.70;81.20
8862;DHT22;4799;50.996;4.754;2023-03-02T15:51:45;8.70;80.70
8862;DHT22;4799;50.996;4.754;2023-03-02T15:54:11;8.70;80.90
8862;DHT22;4799;50.996;4.754;2023-03-02T15:56:37;8.70;81.70
8862;DHT22;4799;50.996;4.754;2023-03-02T15:59:03;8.70;81.50
8862;DHT22;4799;50.996;4.754;2023-03-02T16:01:29;8.70;82.00
8862;DHT22;4799;50.996;4.754;2023-03-02T16:03:58;8.60;82.00
8862;DHT22;4799;50.996;4.754;2023-03-02T16:06:24;8.60;80.80
8862;DHT22;4799;50.996;4.754;2023-03-02T16:08:52;8.60;81.10
8862;DHT22;4799;50.996;4.754;2023-03-02T16:11:18;8.60;81.50
8862;DHT22;4799;50.996;4.754;2023-03-02T16:13:48;8.60;82.30
8862;DHT22;4799;50.996;4.754;2023-03-02T16:16:17;8.50;82.30
8862;DHT22;4799;50.996;4.754;2023-03-02T16:18:51;8.50;82.60
8862;DHT22;4799;50.996;4.754;2023-03-02T16:21:18;8.50;82.20
8862;DHT22;4799;50.996;4.754;2023-03-02T16:23:45;8.50;82.10
8862;DHT22;4799;50.996;4.754;2023-03-02T16:26:14;8.50;81.40
8862;DHT22;4799;50.996;4.754;2023-03-02T16:28:40;8.40;82.10
8862;DHT22;4799;50.996;4.754;2023-03-02T16:31:09;8.40;81.70
8862;DHT22;4799;50.996;4.754;2023-03-02T16:33:35;8.40;82.10
8862;DHT22;4799;50.996;4.754;2023-03-02T16:36:01;8.40;80.60
8862;DHT22;4799;50.996;4.754;2023-03-02T16:38:27;8.30;80.50
8862;DHT22;4799;50.996;4.754;2023-03-02T16:40:53;8.30;80.50
8862;DHT22;4799;50.996;4.754;2023-03-02T16:43:19;8.30;79.90
8862;DHT22;4799;50.996;4.754;2023-03-02T16:45:45;8.30;79.70
8862;DHT22;4799;50.996;4.754;2023-03-02T16:48:12;8.30;80.00
8862;DHT22;4799;50.996;4.754;2023-03-02T16:50:37;8.20;80.30
8862;DHT22;4799;50.996;4.754;2023-03-02T16:53:04;8.10;80.70
8862;DHT22;4799;50.996;4.754;2023-03-02T16:55:30;8.10;81.30
8862;DHT22;4799;50.996;4.754;2023-03-02T16:57:56;8.00;81.20
8862;DHT22;4799;50.996;4.754;2023-03-02T17:00:23;8.00;80.20
8862;DHT22;4799;50.996;4.754;2023-03-02T17:02:50;7.90;80.80
8862;DHT22;4799;50.996;4.754;2023-03-02T17:05:17;7.90;81.50
8862;DHT22;4799;50.996;4.754;2023-03-02T17:07:43;7.80;82.40
8862;DHT22;4799;50.996;4.754;2023-03-02T17:10:13;7.70;83.20
8862;DHT22;4799;50.996;4.754;2023-03-02T17:12:39;7.60;84.00
8862;DHT22;4799;50.996;4.754;2023-03-02T17:15:05;7.50;84.20
8862;DHT22;4799;50.996;4.754;2023-03-02T17:17:31;7.50;83.80
8862;DHT22;4799;50.996;4.754;2023-03-02T17:19:57;7.40;83.40
8862;DHT22;4799;50.996;4.754;2023-03-02T17:22:23;7.40;83.60